^^
Datos históricos de la estación: Murcia-Puente Tocinos
Diario Informe para Diciembre 11, 2019 Unidades:  Ambas    Ingés   Métrico
Diario Semanal Mensual Anual
  Máxima: Mínima: Promedio:
Temperatura: 68 °F /  20 °C 49.3 °F /  9.6 °C 56.7 °F /  13.7 °C
Punto de rocio: 43.3 °F /  6.3 °C 30.4 °F /  -0.9 °C 36.3 °F /  2.4 °C
Humedad: 58.9% 33% 47%
Velocidad viento: 17mph /  27.4km/h - 6.7mph /  10.8km/h
Racha viento: 32.2mph /  51.8km/h - -
Viento- - SO
Presión: 30.2 in /  1023.2 hPa 30 in /  1016.9 hPa -
Precipitación: 0 in /  0.0 mm    
 
 
Tabla de datos para Diciembre 11, 2019
Hora Temperatura Punto de rocio Presión Viento Velocidad viento Racha viento Humedad Intensidad lluvia(por hora) Nubes
00:04 54 °F /  12.2 °C 38.5 °F /  3.6 °C 30.2in /  1022.3hPa SSO 7.7mph /  12.4km/h 12mph /  19.3km/h 55.8% 0in /  0.0mm
00:09 54 °F /  12.2 °C 38.5 °F /  3.6 °C 30.2in /  1022.3hPa SSO 7.4mph /  11.9km/h 12mph /  19.3km/h 56% 0in /  0.0mm
00:14 53.6 °F /  12 °C 38.5 °F /  3.6 °C 30.2in /  1022.1hPa SSO 6.5mph /  10.5km/h 10mph /  16.1km/h 56.4% 0in /  0.0mm
00:19 53.4 °F /  11.9 °C 38.5 °F /  3.6 °C 30.2in /  1022.1hPa SSO 5.9mph /  9.5km/h 8.1mph /  13km/h 56.8% 0in /  0.0mm
00:24 53.4 °F /  11.9 °C 38.1 °F /  3.4 °C 30.2in /  1022.3hPa OSO 5.2mph /  8.4km/h 8mph /  12.9km/h 56% 0in /  0.0mm
00:29 53.4 °F /  11.9 °C 38.1 °F /  3.4 °C 30.2in /  1022.3hPa SO 4.7mph /  7.6km/h 8.1mph /  13km/h 56% 0in /  0.0mm
00:34 53.4 °F /  11.9 °C 38.1 °F /  3.4 °C 30.2in /  1022.3hPa OSO 5mph /  8km/h 8mph /  12.9km/h 56% 0in /  0.0mm
00:39 53.1 °F /  11.7 °C 38.3 °F /  3.5 °C 30.2in /  1022.3hPa OSO 5.2mph /  8.4km/h 7.6mph /  12.2km/h 57% 0in /  0.0mm
00:44 52.3 °F /  11.3 °C 38.1 °F /  3.4 °C 30.2in /  1022.1hPa SO 4.9mph /  7.9km/h 9.2mph /  14.8km/h 58.4% 0in /  0.0mm
00:49 52.2 °F /  11.2 °C 38.1 °F /  3.4 °C 30.2in /  1022.1hPa SSO 4.7mph /  7.6km/h 11.5mph /  18.5km/h 58.9% 0in /  0.0mm
00:54 52.3 °F /  11.3 °C 37.8 °F /  3.2 °C 30.2in /  1022.1hPa SO 5.1mph /  8.2km/h 12mph /  19.3km/h 57.4% 0in /  0.0mm
00:59 52.9 °F /  11.6 °C 37.8 °F /  3.2 °C 30.2in /  1022.0hPa SO 5.4mph /  8.7km/h 13mph /  20.9km/h 56.1% 0in /  0.0mm
01:04 53.1 °F /  11.7 °C 37.8 °F /  3.2 °C 30.2in /  1022.0hPa SO 6.6mph /  10.7km/h 13mph /  20.9km/h 56% 0in /  0.0mm
01:09 52.9 °F /  11.6 °C 37.6 °F /  3.1 °C 30.2in /  1022.0hPa SSO 7.4mph /  11.9km/h 13.8mph /  22.2km/h 56% 0in /  0.0mm
01:14 52.5 °F /  11.4 °C 37.4 °F /  3 °C 30.2in /  1021.9hPa SSO 7.4mph /  11.9km/h 14mph /  22.5km/h 56% 0in /  0.0mm
01:19 52.5 °F /  11.4 °C 37.2 °F /  2.9 °C 30.2in /  1021.9hPa SSO 7.4mph /  11.9km/h 13mph /  20.9km/h 56% 0in /  0.0mm
01:24 52.3 °F /  11.3 °C 37.2 °F /  2.9 °C 30.2in /  1021.9hPa SSO 7.8mph /  12.5km/h 13mph /  20.9km/h 56% 0in /  0.0mm
01:29 52.3 °F /  11.3 °C 37 °F /  2.8 °C 30.2in /  1021.7hPa Sur 8.1mph /  13km/h 10mph /  16.1km/h 56% 0in /  0.0mm
01:34 52.3 °F /  11.3 °C 36.9 °F /  2.7 °C 30.2in /  1021.7hPa SSO 7.4mph /  11.9km/h 11.5mph /  18.5km/h 55.5% 0in /  0.0mm
01:39 52.9 °F /  11.6 °C 36.7 °F /  2.6 °C 30.2in /  1021.7hPa SSO 6.9mph /  11.1km/h 12mph /  19.3km/h 54% 0in /  0.0mm
01:44 53.1 °F /  11.7 °C 36.3 °F /  2.4 °C 30.2in /  1021.6hPa SSO 6.9mph /  11.1km/h 12mph /  19.3km/h 53% 0in /  0.0mm
01:49 53.1 °F /  11.7 °C 36.3 °F /  2.4 °C 30.2in /  1021.6hPa SO 6.9mph /  11.1km/h 12mph /  19.3km/h 53% 0in /  0.0mm
01:54 53.1 °F /  11.7 °C 36 °F /  2.2 °C 30.2in /  1021.6hPa SO 6.6mph /  10.6km/h 12mph /  19.3km/h 52.2% 0in /  0.0mm
01:59 53.2 °F /  11.8 °C 36 °F /  2.2 °C 30.2in /  1021.5hPa SSO 6.4mph /  10.3km/h 10.4mph /  16.7km/h 52% 0in /  0.0mm
02:04 53.2 °F /  11.8 °C 36.1 °F /  2.3 °C 30.2in /  1021.5hPa SSO 6.3mph /  10.1km/h 10mph /  16.1km/h 52% 0in /  0.0mm
02:09 53.2 °F /  11.8 °C 36 °F /  2.2 °C 30.2in /  1021.5hPa SSO 6.2mph /  10km/h 8.5mph /  13.7km/h 51.9% 0in /  0.0mm
02:14 53.1 °F /  11.7 °C 35.8 °F /  2.1 °C 30.2in /  1021.5hPa SSO 5.6mph /  9km/h 9mph /  14.5km/h 52% 0in /  0.0mm
02:19 52.9 °F /  11.6 °C 35.6 °F /  2 °C 30.2in /  1021.5hPa SSO 5.2mph /  8.4km/h 8.1mph /  13km/h 52% 0in /  0.0mm
02:24 52.5 °F /  11.4 °C 35.4 °F /  1.9 °C 30.2in /  1021.5hPa SSO 5.3mph /  8.5km/h 9.2mph /  14.8km/h 52% 0in /  0.0mm
02:29 52.7 °F /  11.5 °C 35.4 °F /  1.9 °C 30.2in /  1021.2hPa SO 5.4mph /  8.7km/h 9mph /  14.5km/h 51.8% 0in /  0.0mm
02:34 52.9 °F /  11.6 °C 35.2 °F /  1.8 °C 30.2in /  1021.2hPa SSO 5.7mph /  9.2km/h 8.1mph /  13km/h 51% 0in /  0.0mm
02:39 52.9 °F /  11.6 °C 34.9 °F /  1.6 °C 30.2in /  1021.2hPa SSO 5.9mph /  9.5km/h 8mph /  12.9km/h 50.4% 0in /  0.0mm
02:44 53.1 °F /  11.7 °C 34.9 °F /  1.6 °C 30.2in /  1021.1hPa SSO 5.5mph /  8.8km/h 9.7mph /  15.6km/h 50% 0in /  0.0mm
02:49 53.1 °F /  11.7 °C 34.5 °F /  1.4 °C 30.2in /  1021.1hPa SSO 5.2mph /  8.4km/h 10mph /  16.1km/h 49.1% 0in /  0.0mm
02:54 53.2 °F /  11.8 °C 34.5 °F /  1.4 °C 30.2in /  1021.1hPa SSO 5.3mph /  8.6km/h 9mph /  14.5km/h 49% 0in /  0.0mm
02:59 53.2 °F /  11.8 °C 34.3 °F /  1.3 °C 30.2in /  1021.1hPa SSO 5.4mph /  8.7km/h 9.2mph /  14.8km/h 48.6% 0in /  0.0mm
03:04 53.2 °F /  11.8 °C 34 °F /  1.1 °C 30.2in /  1021.1hPa SSO 5.7mph /  9.2km/h 9mph /  14.5km/h 48% 0in /  0.0mm
03:09 53.2 °F /  11.8 °C 34 °F /  1.1 °C 30.2in /  1021.2hPa SO 5.9mph /  9.5km/h 8.1mph /  13km/h 48% 0in /  0.0mm
03:14 53.2 °F /  11.8 °C 34 °F /  1.1 °C 30.2in /  1021.2hPa SO 5.6mph /  9km/h 8.1mph /  13km/h 48% 0in /  0.0mm
03:19 53.1 °F /  11.7 °C 34 °F /  1.1 °C 30.2in /  1021.2hPa SO 5.4mph /  8.7km/h 8mph /  12.9km/h 48.2% 0in /  0.0mm
03:24 52.7 °F /  11.5 °C 34.2 °F /  1.2 °C 30.2in /  1021.2hPa SO 4.6mph /  7.4km/h 6.2mph /  10km/h 49% 0in /  0.0mm
03:29 52.5 °F /  11.4 °C 34 °F /  1.1 °C 30.2in /  1021.1hPa SO 4mph /  6.5km/h 8.1mph /  13km/h 49% 0in /  0.0mm
03:34 52.5 °F /  11.4 °C 33.6 °F /  0.9 °C 30.2in /  1021.1hPa SSO 4.4mph /  7.1km/h 10.4mph /  16.7km/h 48.3% 0in /  0.0mm
03:39 52.7 °F /  11.5 °C 33.4 °F /  0.8 °C 30.2in /  1021.1hPa SSO 4.7mph /  7.6km/h 10mph /  16.1km/h 47.8% 0in /  0.0mm
03:44 52.9 °F /  11.6 °C 33.1 °F /  0.6 °C 30.2in /  1021.0hPa SSO 5.6mph /  9km/h 10.4mph /  16.7km/h 47% 0in /  0.0mm
03:49 52.9 °F /  11.6 °C 33.3 °F /  0.7 °C 30.2in /  1021.0hPa Sur 6.2mph /  10km/h 10mph /  16.1km/h 47% 0in /  0.0mm
03:54 52.7 °F /  11.5 °C 33.1 °F /  0.6 °C 30.2in /  1021.1hPa Sur 6mph /  9.7km/h 9mph /  14.5km/h 47% 0in /  0.0mm
03:59 52.3 °F /  11.3 °C 32.7 °F /  0.4 °C 30.2in /  1021.1hPa SSO 5.9mph /  9.5km/h 10.4mph /  16.7km/h 47% 0in /  0.0mm
04:04 52.2 °F /  11.2 °C 32.7 °F /  0.4 °C 30.2in /  1021.1hPa SO 5.9mph /  9.5km/h 10mph /  16.1km/h 47.4% 0in /  0.0mm
04:09 52.2 °F /  11.2 °C 32.5 °F /  0.3 °C 30.2in /  1021.1hPa SSO 5.9mph /  9.5km/h 8mph /  12.9km/h 47% 0in /  0.0mm
04:14 52.2 °F /  11.2 °C 32.5 °F /  0.3 °C 30.2in /  1021.1hPa SO 5.2mph /  8.4km/h 7mph /  11.3km/h 47% 0in /  0.0mm
04:19 52 °F /  11.1 °C 32.4 °F /  0.2 °C 30.2in /  1021.1hPa SSO 4.7mph /  7.6km/h 8.1mph /  13km/h 47% 0in /  0.0mm
04:24 52 °F /  11.1 °C 32.4 °F /  0.2 °C 30.2in /  1021.1hPa Sur 4.7mph /  7.6km/h 10.4mph /  16.7km/h 47% 0in /  0.0mm
04:29 52 °F /  11.1 °C 32.4 °F /  0.2 °C 30.2in /  1020.9hPa SSO 4.7mph /  7.6km/h 10mph /  16.1km/h 47% 0in /  0.0mm
04:34 52 °F /  11.1 °C 32.4 °F /  0.2 °C 30.2in /  1020.9hPa SSO 5.7mph /  9.1km/h 9.7mph /  15.6km/h 47% 0in /  0.0mm
04:39 52 °F /  11.1 °C 32.4 °F /  0.2 °C 30.2in /  1020.9hPa SO 6.4mph /  10.3km/h 10mph /  16.1km/h 47% 0in /  0.0mm
04:44 52 °F /  11.1 °C 32.4 °F /  0.2 °C 30.2in /  1020.9hPa OSO 5.4mph /  8.7km/h 8mph /  12.9km/h 47% 0in /  0.0mm
04:49 51.8 °F /  11 °C 32.2 °F /  0.1 °C 30.2in /  1020.9hPa OSO 4.7mph /  7.6km/h 8mph /  12.9km/h 47% 0in /  0.0mm
04:54 51.6 °F /  10.9 °C 32 °F /  0 °C 30.2in /  1020.9hPa SSO 3.7mph /  5.9km/h 6.9mph /  11.1km/h 47% 0in /  0.0mm
04:59 51.6 °F /  10.9 °C 31.8 °F /  -0.1 °C 30.2in /  1020.9hPa Sur 2.9mph /  4.7km/h 7mph /  11.3km/h 46.5% 0in /  0.0mm
05:04 51.6 °F /  10.9 °C 32 °F /  0 °C 30.2in /  1020.9hPa SO 3mph /  4.8km/h 7mph /  11.3km/h 47.1% 0in /  0.0mm
05:09 51.4 °F /  10.8 °C 33.1 °F /  0.6 °C 30.2in /  1020.9hPa Oeste 3.1mph /  5km/h 5mph /  8km/h 49.5% 0in /  0.0mm
05:14 50.7 °F /  10.4 °C 32.5 °F /  0.3 °C 30.1in /  1020.8hPa SO 2.4mph /  3.9km/h 5.9mph /  9.5km/h 49.8% 0in /  0.0mm
05:19 50.4 °F /  10.2 °C 32.4 °F /  0.2 °C 30.1in /  1020.8hPa SSO 2mph /  3.2km/h 8.5mph /  13.7km/h 50% 0in /  0.0mm
05:24 50.4 °F /  10.2 °C 32.4 °F /  0.2 °C 30.1in /  1020.8hPa SSO 3.2mph /  5.1km/h 10.4mph /  16.7km/h 49.9% 0in /  0.0mm
05:29 50.4 °F /  10.2 °C 31.8 °F /  -0.1 °C 30.1in /  1020.5hPa SSO 4mph /  6.5km/h 10mph /  16.1km/h 49% 0in /  0.0mm
05:34 50.5 °F /  10.3 °C 32.2 °F /  0.1 °C 30.1in /  1020.5hPa SSO 4.8mph /  7.8km/h 9.2mph /  14.8km/h 49% 0in /  0.0mm
05:39 50.5 °F /  10.3 °C 32 °F /  0 °C 30.1in /  1020.5hPa SSO 5.4mph /  8.7km/h 10.7mph /  17.2km/h 48.8% 0in /  0.0mm
05:44 50.5 °F /  10.3 °C 31.8 °F /  -0.1 °C 30.1in /  1020.4hPa SO 5.4mph /  8.7km/h 11mph /  17.7km/h 48.5% 0in /  0.0mm
05:49 50.5 °F /  10.3 °C 31.6 °F /  -0.2 °C 30.1in /  1020.4hPa SO 5.4mph /  8.7km/h 9.2mph /  14.8km/h 48% 0in /  0.0mm
05:54 50.7 °F /  10.4 °C 31.6 °F /  -0.2 °C 30.1in /  1020.4hPa SO 5.3mph /  8.5km/h 9mph /  14.5km/h 48% 0in /  0.0mm
05:59 50.7 °F /  10.4 °C 31.5 °F /  -0.3 °C 30.1in /  1020.3hPa SO 5.2mph /  8.4km/h 8.5mph /  13.7km/h 47.3% 0in /  0.0mm
06:04 51.1 °F /  10.6 °C 31.5 °F /  -0.3 °C 30.1in /  1020.3hPa SSO 5.2mph /  8.4km/h 11.5mph /  18.5km/h 47% 0in /  0.0mm
06:09 51.1 °F /  10.6 °C 31.1 °F /  -0.5 °C 30.1in /  1020.4hPa SO 5.2mph /  8.4km/h 12mph /  19.3km/h 46.3% 0in /  0.0mm
06:14 51.1 °F /  10.6 °C 31.1 °F /  -0.5 °C 30.1in /  1020.4hPa SSO 5.6mph /  9km/h 10mph /  16.1km/h 46.3% 0in /  0.0mm
06:19 51.3 °F /  10.7 °C 31.1 °F /  -0.5 °C 30.1in /  1020.4hPa SSO 5.9mph /  9.5km/h 10.4mph /  16.7km/h 46% 0in /  0.0mm
06:24 51.3 °F /  10.7 °C 31.3 °F /  -0.4 °C 30.1in /  1020.4hPa SSO 6.5mph /  10.4km/h 10.7mph /  17.2km/h 46% 0in /  0.0mm
06:29 51.3 °F /  10.7 °C 31.3 °F /  -0.4 °C 30.1in /  1020.3hPa SSO 6.9mph /  11.1km/h 11.5mph /  18.5km/h 46% 0in /  0.0mm
06:34 51.3 °F /  10.7 °C 31.3 °F /  -0.4 °C 30.1in /  1020.3hPa SSO 6.9mph /  11.1km/h 12mph /  19.3km/h 46% 0in /  0.0mm
06:39 51.3 °F /  10.7 °C 31.3 °F /  -0.4 °C 30.1in /  1020.4hPa SSO 6.9mph /  11.1km/h 9.2mph /  14.8km/h 46% 0in /  0.0mm
06:44 51.1 °F /  10.6 °C 30.9 °F /  -0.6 °C 30.1in /  1020.4hPa SSO 6.5mph /  10.4km/h 9.7mph /  15.6km/h 45.9% 0in /  0.0mm
06:49 51.3 °F /  10.7 °C 30.7 °F /  -0.7 °C 30.1in /  1020.4hPa SSO 6.2mph /  10km/h 10mph /  16.1km/h 45.3% 0in /  0.0mm
06:54 51.3 °F /  10.7 °C 30.6 °F /  -0.8 °C 30.1in /  1020.4hPa SO 5.7mph /  9.2km/h 7mph /  11.3km/h 45.1% 0in /  0.0mm
06:59 51.1 °F /  10.6 °C 30.7 °F /  -0.7 °C 30.1in /  1020.4hPa SO 5.4mph /  8.7km/h 8.1mph /  13km/h 45.4% 0in /  0.0mm
07:04 51.1 °F /  10.6 °C 30.6 °F /  -0.8 °C 30.1in /  1020.4hPa SO 5mph /  8km/h 8mph /  12.9km/h 45% 0in /  0.0mm
07:09 51.1 °F /  10.6 °C 30.6 °F /  -0.8 °C 30.1in /  1020.4hPa SO 4.7mph /  7.6km/h 7mph /  11.3km/h 45% 0in /  0.0mm
07:14 50.9 °F /  10.5 °C 30.4 °F /  -0.9 °C 30.1in /  1020.4hPa SO 4.3mph /  6.9km/h 6mph /  9.7km/h 45% 0in /  0.0mm
07:19 50.7 °F /  10.4 °C 30.6 °F /  -0.8 °C 30.1in /  1020.4hPa SO 4mph /  6.5km/h 5.2mph /  8.4km/h 45.8% 0in /  0.0mm
07:24 50.5 °F /  10.3 °C 30.6 °F /  -0.8 °C 30.1in /  1020.5hPa SO 3.5mph /  5.7km/h 5.8mph /  9.3km/h 46% 0in /  0.0mm
07:29 50.5 °F /  10.3 °C 30.7 °F /  -0.7 °C 30.1in /  1020.5hPa OSO 3.1mph /  5km/h 6mph /  9.7km/h 46.7% 0in /  0.0mm
07:34 50 °F /  10 °C 31.1 °F /  -0.5 °C 30.1in /  1020.5hPa OSO 3.4mph /  5.5km/h 6mph /  9.7km/h 48.2% 0in /  0.0mm
07:39 49.5 °F /  9.7 °C 31.1 °F /  -0.5 °C 30.1in /  1020.5hPa OSO 3.6mph /  5.8km/h 6.2mph /  10km/h 49% 0in /  0.0mm
07:44 49.3 °F /  9.6 °C 31.3 °F /  -0.4 °C 30.1in /  1020.5hPa SO 3.9mph /  6.2km/h 7.4mph /  11.9km/h 49.8% 0in /  0.0mm
07:49 49.5 °F /  9.7 °C 31.1 °F /  -0.5 °C 30.1in /  1020.5hPa SO 4mph /  6.5km/h 8.1mph /  13km/h 49% 0in /  0.0mm
07:54 49.6 °F /  9.8 °C 30.9 °F /  -0.6 °C 30.1in /  1020.5hPa SO 4.7mph /  7.6km/h 8mph /  12.9km/h 48.2% 0in /  0.0mm
07:59 50 °F /  10 °C 31.1 °F /  -0.5 °C 30.1in /  1020.4hPa SO 5.2mph /  8.4km/h 8.1mph /  13km/h 48% 0in /  0.0mm
08:04 50.4 °F /  10.2 °C 31.3 °F /  -0.4 °C 30.1in /  1020.4hPa SO 5.3mph /  8.6km/h 8mph /  12.9km/h 48% 0in /  0.0mm
08:09 50.4 °F /  10.2 °C 31.5 °F /  -0.3 °C 30.1in /  1020.4hPa SO 5.4mph /  8.7km/h 9.2mph /  14.8km/h 48% 0in /  0.0mm
08:14 50.4 °F /  10.2 °C 31.5 °F /  -0.3 °C 30.1in /  1020.4hPa SO 5.3mph /  8.5km/h 9mph /  14.5km/h 48% 0in /  0.0mm
08:19 50.4 °F /  10.2 °C 31.5 °F /  -0.3 °C 30.1in /  1020.4hPa SO 5.2mph /  8.4km/h 7.4mph /  11.9km/h 48% 0in /  0.0mm
08:24 50.4 °F /  10.2 °C 31.8 °F /  -0.1 °C 30.1in /  1020.4hPa OSO 4.9mph /  7.9km/h 7mph /  11.3km/h 48.7% 0in /  0.0mm
08:29 50 °F /  10 °C 32 °F /  0 °C 30.1in /  1020.2hPa OSO 4.7mph /  7.6km/h 8.1mph /  13km/h 49.8% 0in /  0.0mm
08:34 49.5 °F /  9.7 °C 32 °F /  0 °C 30.1in /  1020.2hPa SO 4.7mph /  7.6km/h 8.1mph /  13km/h 50.7% 0in /  0.0mm
08:39 49.3 °F /  9.6 °C 32.2 °F /  0.1 °C 30.1in /  1020.4hPa SO 4.7mph /  7.6km/h 9.2mph /  14.8km/h 51.5% 0in /  0.0mm
08:44 49.5 °F /  9.7 °C 32.5 °F /  0.3 °C 30.1in /  1020.4hPa SO 5mph /  8km/h 9mph /  14.5km/h 51.9% 0in /  0.0mm
08:49 49.6 °F /  9.8 °C 32.5 °F /  0.3 °C 30.1in /  1020.4hPa SO 5.2mph /  8.4km/h 9mph /  14.5km/h 51.9% 0in /  0.0mm
08:54 49.6 °F /  9.8 °C 32.4 °F /  0.2 °C 30.1in /  1020.4hPa SO 4.5mph /  7.3km/h 6mph /  9.7km/h 51% 0in /  0.0mm
08:59 49.8 °F /  9.9 °C 32.7 °F /  0.4 °C 30.1in /  1020.3hPa SO 4mph /  6.5km/h 5mph /  8km/h 51.3% 0in /  0.0mm
09:04 50 °F /  10 °C 32.7 °F /  0.4 °C 30.1in /  1020.3hPa SSO 3.4mph /  5.4km/h 5.8mph /  9.3km/h 51.3% 0in /  0.0mm
09:09 50.4 °F /  10.2 °C 32.2 °F /  0.1 °C 30.1in /  1020.4hPa SO 2.9mph /  4.7km/h 6mph /  9.7km/h 49.8% 0in /  0.0mm
09:14 50.7 °F /  10.4 °C 32.2 °F /  0.1 °C 30.1in /  1020.4hPa SSO 2.9mph /  4.7km/h 6mph /  9.7km/h 49% 0in /  0.0mm
09:19 51.3 °F /  10.7 °C 32.7 °F /  0.4 °C 30.1in /  1020.4hPa Sur 2.9mph /  4.7km/h 5.9mph /  9.5km/h 49% 0in /  0.0mm
09:24 51.6 °F /  10.9 °C 33.1 °F /  0.6 °C 30.1in /  1020.4hPa Sur 3mph /  4.8km/h 7.6mph /  12.2km/h 49% 0in /  0.0mm
09:29 51.4 °F /  10.8 °C 33.4 °F /  0.8 °C 30.1in /  1020.3hPa Sur 3.1mph /  5km/h 8.1mph /  13km/h 50.1% 0in /  0.0mm
09:34 51.1 °F /  10.6 °C 34 °F /  1.1 °C 30.1in /  1020.3hPa Sur 4.3mph /  6.9km/h 8mph /  12.9km/h 51.7% 0in /  0.0mm
09:39 50.7 °F /  10.4 °C 34.5 °F /  1.4 °C 30.1in /  1020.3hPa SSE 5.2mph /  8.4km/h 7mph /  11.3km/h 53.5% 0in /  0.0mm
09:44 50.4 °F /  10.2 °C 34.7 °F /  1.5 °C 30.1in /  1020.3hPa SSO 4.5mph /  7.3km/h 7mph /  11.3km/h 55% 0in /  0.0mm
09:49 50 °F /  10 °C 34.5 °F /  1.4 °C 30.1in /  1020.3hPa SO 4mph /  6.5km/h 7mph /  11.3km/h 54.8% 0in /  0.0mm
09:54 50.2 °F /  10.1 °C 34 °F /  1.1 °C 30.1in /  1020.5hPa SO 4.2mph /  6.7km/h 7mph /  11.3km/h 53.3% 0in /  0.0mm
09:59 50.5 °F /  10.3 °C 33.8 °F /  1 °C 30.1in /  1020.5hPa SO 4.3mph /  6.9km/h 8.5mph /  13.7km/h 52.5% 0in /  0.0mm
10:04 50.7 °F /  10.4 °C 33.6 °F /  0.9 °C 30.1in /  1020.5hPa SSO 4.5mph /  7.3km/h 9mph /  14.5km/h 51.5% 0in /  0.0mm
10:09 51.1 °F /  10.6 °C 33.3 °F /  0.7 °C 30.1in /  1020.5hPa SSO 4.7mph /  7.6km/h 8.1mph /  13km/h 50.4% 0in /  0.0mm
10:14 51.4 °F /  10.8 °C 33.3 °F /  0.7 °C 30.1in /  1020.5hPa Sur 5mph /  8km/h 8.1mph /  13km/h 50% 0in /  0.0mm
10:19 51.4 °F /  10.8 °C 33.1 °F /  0.6 °C 30.1in /  1020.5hPa SSO 5.2mph /  8.4km/h 8.1mph /  13km/h 49.4% 0in /  0.0mm
10:24 51.4 °F /  10.8 °C 33.3 °F /  0.7 °C 30.1in /  1020.7hPa SSO 5.2mph /  8.4km/h 8.5mph /  13.7km/h 49.4% 0in /  0.0mm
10:29 51.6 °F /  10.9 °C 33.4 °F /  0.8 °C 30.1in /  1020.7hPa SSO 5.2mph /  8.4km/h 9mph /  14.5km/h 49.9% 0in /  0.0mm
10:34 51.6 °F /  10.9 °C 33.6 °F /  0.9 °C 30.1in /  1020.7hPa SSO 4.9mph /  7.9km/h 6.9mph /  11.1km/h 49.8% 0in /  0.0mm
10:39 52 °F /  11.1 °C 33.8 °F /  1 °C 30.1in /  1020.7hPa SSO 4.7mph /  7.6km/h 8.1mph /  13km/h 49.5% 0in /  0.0mm
10:44 52.5 °F /  11.4 °C 34 °F /  1.1 °C 30.1in /  1020.7hPa SSO 4.5mph /  7.2km/h 8.1mph /  13km/h 49.1% 0in /  0.0mm
10:49 53.1 °F /  11.7 °C 33.8 °F /  1 °C 30.1in /  1020.7hPa SSO 4.3mph /  6.9km/h 8.5mph /  13.7km/h 47.8% 0in /  0.0mm
10:54 53.6 °F /  12 °C 34 °F /  1.1 °C 30.1in /  1020.7hPa SSO 4.8mph /  7.8km/h 9mph /  14.5km/h 47.2% 0in /  0.0mm
10:59 54 °F /  12.2 °C 34.3 °F /  1.3 °C 30.1in /  1020.4hPa SSO 5.2mph /  8.4km/h 9mph /  14.5km/h 47.5% 0in /  0.0mm
11:04 54.1 °F /  12.3 °C 34.7 °F /  1.5 °C 30.1in /  1020.4hPa SO 4.9mph /  7.9km/h 8.1mph /  13km/h 47.5% 0in /  0.0mm
11:09 54.5 °F /  12.5 °C 34.7 °F /  1.5 °C 30.1in /  1020.4hPa SO 4.7mph /  7.6km/h 8mph /  12.9km/h 47% 0in /  0.0mm
11:14 54.9 °F /  12.7 °C 34.9 °F /  1.6 °C 30.1in /  1020.4hPa SO 4.5mph /  7.2km/h 7mph /  11.3km/h 47% 0in /  0.0mm
11:19 55 °F /  12.8 °C 35.1 °F /  1.7 °C 30.1in /  1020.4hPa SO 4.3mph /  6.9km/h 6.9mph /  11.1km/h 46.7% 0in /  0.0mm
11:24 55.4 °F /  13 °C 34.5 °F /  1.4 °C 30.1in /  1020.4hPa SO 3.9mph /  6.3km/h 7mph /  11.3km/h 45.5% 0in /  0.0mm
11:29 55.8 °F /  13.2 °C 34.7 °F /  1.5 °C 30.1in /  1020.3hPa SSO 3.6mph /  5.8km/h 7mph /  11.3km/h 44.9% 0in /  0.0mm
11:34 56.3 °F /  13.5 °C 34.2 °F /  1.2 °C 30.1in /  1020.3hPa SSO 3.9mph /  6.2km/h 6mph /  9.7km/h 43.1% 0in /  0.0mm
11:39 56.8 °F /  13.8 °C 34 °F /  1.1 °C 30.1in /  1020.3hPa SSO 4mph /  6.5km/h 6.2mph /  10km/h 42% 0in /  0.0mm
11:44 57.4 °F /  14.1 °C 33.8 °F /  1 °C 30.1in /  1020.0hPa SO 4mph /  6.5km/h 7.6mph /  12.2km/h 40.8% 0in /  0.0mm
11:49 57.6 °F /  14.2 °C 33.3 °F /  0.7 °C 30.1in /  1020.0hPa SO 4mph /  6.5km/h 8.1mph /  13km/h 39.7% 0in /  0.0mm
11:54 57.7 °F /  14.3 °C 34 °F /  1.1 °C 30.1in /  1020.0hPa OSO 4.2mph /  6.7km/h 8mph /  12.9km/h 40.6% 0in /  0.0mm
11:59 58.1 °F /  14.5 °C 34 °F /  1.1 °C 30.1in /  1019.8hPa SO 4.3mph /  6.9km/h 8.1mph /  13km/h 40.2% 0in /  0.0mm
12:04 58.5 °F /  14.7 °C 34.5 °F /  1.4 °C 30.1in /  1019.8hPa SSE 4.1mph /  6.6km/h 8mph /  12.9km/h 40.6% 0in /  0.0mm
12:09 59.2 °F /  15.1 °C 33.4 °F /  0.8 °C 30.1in /  1019.8hPa SSO 4mph /  6.5km/h 7mph /  11.3km/h 37.8% 0in /  0.0mm
12:14 59.5 °F /  15.3 °C 33.1 °F /  0.6 °C 30.1in /  1019.3hPa SSO 4.2mph /  6.7km/h 7mph /  11.3km/h 36.6% 0in /  0.0mm
12:19 60.1 °F /  15.6 °C 33.1 °F /  0.6 °C 30.1in /  1019.3hPa Sur 4.3mph /  6.9km/h 8.5mph /  13.7km/h 36.2% 0in /  0.0mm
12:24 60.4 °F /  15.8 °C 33.1 °F /  0.6 °C 30.1in /  1019.3hPa SO 4.5mph /  7.3km/h 9mph /  14.5km/h 35.7% 0in /  0.0mm
12:29 61 °F /  16.1 °C 32.4 °F /  0.2 °C 30.1in /  1019.1hPa SSO 4.7mph /  7.6km/h 8.1mph /  13km/h 34.2% 0in /  0.0mm
12:34 61.2 °F /  16.2 °C 32 °F /  0 °C 30.1in /  1019.1hPa OSO 4.3mph /  6.9km/h 8mph /  12.9km/h 33.3% 0in /  0.0mm
12:39 61.5 °F /  16.4 °C 32.4 °F /  0.2 °C 30.1in /  1019.1hPa SO 4mph /  6.5km/h 8.7mph /  14km/h 33.3% 0in /  0.0mm
12:44 61.5 °F /  16.4 °C 32.5 °F /  0.3 °C 30.1in /  1018.6hPa OSO 4.2mph /  6.7km/h 9.2mph /  14.8km/h 33.5% 0in /  0.0mm
12:49 61.9 °F /  16.6 °C 33.1 °F /  0.6 °C 30.1in /  1018.6hPa SSO 4.3mph /  6.9km/h 9mph /  14.5km/h 33.9% 0in /  0.0mm
12:54 62.2 °F /  16.8 °C 33.4 °F /  0.8 °C 30.1in /  1018.6hPa SO 3.9mph /  6.3km/h 8mph /  12.9km/h 33.8% 0in /  0.0mm
12:59 62.8 °F /  17.1 °C 33.6 °F /  0.9 °C 30.1in /  1018.4hPa SSO 3.6mph /  5.8km/h 6.9mph /  11.1km/h 33.7% 0in /  0.0mm
13:04 63 °F /  17.2 °C 33.4 °F /  0.8 °C 30.1in /  1018.4hPa SO 3.9mph /  6.2km/h 8.1mph /  13km/h 33% 0in /  0.0mm
13:09 63.1 °F /  17.3 °C 33.4 °F /  0.8 °C 30.1in /  1018.4hPa SO 4mph /  6.5km/h 8.1mph /  13km/h 33% 0in /  0.0mm
13:14 63.3 °F /  17.4 °C 34.3 °F /  1.3 °C 30.1in /  1018.2hPa SSO 3.8mph /  6.1km/h 8mph /  12.9km/h 33.9% 0in /  0.0mm
13:19 63.5 °F /  17.5 °C 34.2 °F /  1.2 °C 30.1in /  1018.2hPa SSO 3.6mph /  5.8km/h 7mph /  11.3km/h 33.4% 0in /  0.0mm
13:24 63.7 °F /  17.6 °C 34.5 °F /  1.4 °C 30.1in /  1018.2hPa SSO 4mph /  6.4km/h 8.1mph /  13km/h 33.7% 0in /  0.0mm
13:29 63.7 °F /  17.6 °C 34.7 °F /  1.5 °C 30.1in /  1018.0hPa SSO 4.3mph /  6.9km/h 8.1mph /  13km/h 34% 0in /  0.0mm
13:34 63.7 °F /  17.6 °C 34.9 °F /  1.6 °C 30.1in /  1018.0hPa Sur 4.8mph /  7.8km/h 8mph /  12.9km/h 34.1% 0in /  0.0mm
13:39 63.7 °F /  17.6 °C 35.1 °F /  1.7 °C 30.1in /  1018.0hPa Sur 5.2mph /  8.4km/h 8.5mph /  13.7km/h 34.4% 0in /  0.0mm
13:44 64 °F /  17.8 °C 35.4 °F /  1.9 °C 30.1in /  1018.0hPa SSO 5.2mph /  8.4km/h 9.2mph /  14.8km/h 34.5% 0in /  0.0mm
13:49 64.2 °F /  17.9 °C 35.8 °F /  2.1 °C 30.1in /  1018.0hPa SSO 5.2mph /  8.4km/h 9mph /  14.5km/h 34.8% 0in /  0.0mm
13:54 64.6 °F /  18.1 °C 36.1 °F /  2.3 °C 30.1in /  1018.0hPa Sur 4.7mph /  7.5km/h 9.2mph /  14.8km/h 35% 0in /  0.0mm
13:59 64.6 °F /  18.1 °C 36.1 °F /  2.3 °C 30.1in /  1017.7hPa SSE 4.3mph /  6.9km/h 9.2mph /  14.8km/h 35% 0in /  0.0mm
14:04 64.8 °F /  18.2 °C 36.5 °F /  2.5 °C 30.1in /  1017.7hPa Sur 5.5mph /  8.8km/h 9.2mph /  14.8km/h 35% 0in /  0.0mm
14:09 64.9 °F /  18.3 °C 36.7 °F /  2.6 °C 30.1in /  1017.7hPa SSE 6.2mph /  10km/h 9.7mph /  15.6km/h 35% 0in /  0.0mm
14:14 64.9 °F /  18.3 °C 36.7 °F /  2.6 °C 30in /  1017.3hPa Sur 6mph /  9.7km/h 10mph /  16.1km/h 35% 0in /  0.0mm
14:19 65.3 °F /  18.5 °C 36.1 °F /  2.3 °C 30in /  1017.3hPa Sur 5.9mph /  9.5km/h 8.1mph /  13km/h 34% 0in /  0.0mm
14:24 65.7 °F /  18.7 °C 36.5 °F /  2.5 °C 30in /  1017.3hPa Sur 5.6mph /  9km/h 10mph /  16.1km/h 34% 0in /  0.0mm
14:29 65.8 °F /  18.8 °C 36.1 °F /  2.3 °C 30in /  1017.0hPa Sur 5.4mph /  8.7km/h 10.4mph /  16.7km/h 33.3% 0in /  0.0mm
14:34 66.2 °F /  19 °C 36.7 °F /  2.6 °C 30in /  1017.0hPa SSO 5.8mph /  9.4km/h 10mph /  16.1km/h 33.5% 0in /  0.0mm
14:39 66.6 °F /  19.2 °C 37.2 °F /  2.9 °C 30in /  1017.0hPa SSO 6.2mph /  10km/h 10.4mph /  16.7km/h 33.9% 0in /  0.0mm
14:44 66.7 °F /  19.3 °C 36.9 °F /  2.7 °C 30in /  1017.0hPa Sur 6.2mph /  10km/h 10.4mph /  16.7km/h 33.2% 0in /  0.0mm
14:49 66.7 °F /  19.3 °C 36.9 °F /  2.7 °C 30in /  1017.0hPa SSO 6.2mph /  10km/h 10mph /  16.1km/h 33.4% 0in /  0.0mm
14:54 66.7 °F /  19.3 °C 36.9 °F /  2.7 °C 30in /  1017.0hPa SSO 6.3mph /  10.2km/h 9.7mph /  15.6km/h 33% 0in /  0.0mm
14:59 66.9 °F /  19.4 °C 36.9 °F /  2.7 °C 30in /  1017.0hPa SSO 6.4mph /  10.3km/h 10mph /  16.1km/h 33% 0in /  0.0mm
15:04 66.9 °F /  19.4 °C 36.9 °F /  2.7 °C 30in /  1017.0hPa OSO 5.8mph /  9.4km/h 11.4mph /  18.3km/h 33% 0in /  0.0mm
15:09 67.1 °F /  19.5 °C 37.4 °F /  3 °C 30in /  1017.1hPa Oeste 5.4mph /  8.7km/h 14mph /  22.5km/h 33.5% 0in /  0.0mm
15:14 67.5 °F /  19.7 °C 38.1 °F /  3.4 °C 30in /  1017.1hPa OSO 6.5mph /  10.5km/h 20.7mph /  33.3km/h 34% 0in /  0.0mm
15:19 68 °F /  20 °C 38.7 °F /  3.7 °C 30in /  1017.1hPa Oeste 7.4mph /  11.9km/h 21mph /  33.8km/h 34% 0in /  0.0mm
15:24 68 °F /  20 °C 38.8 °F /  3.8 °C 30in /  1017.2hPa Oeste 8.3mph /  13.4km/h 26.5mph /  42.6km/h 34.3% 0in /  0.0mm
15:29 67.8 °F /  19.9 °C 38.5 °F /  3.6 °C 30in /  1017.2hPa ONO 9.2mph /  14.8km/h 26.5mph /  42.6km/h 34.1% 0in /  0.0mm
15:34 67.6 °F /  19.8 °C 38.3 °F /  3.5 °C 30in /  1017.2hPa ONO 12.8mph /  20.6km/h 26mph /  41.8km/h 34% 0in /  0.0mm
15:39 67.6 °F /  19.8 °C 38.7 °F /  3.7 °C 30in /  1017.2hPa Oeste 15.6mph /  25.1km/h 23mph /  37km/h 34.6% 0in /  0.0mm
15:44 67.5 °F /  19.7 °C 38.8 °F /  3.8 °C 30in /  1017.2hPa ONO 13.8mph /  22.2km/h 23mph /  37km/h 35% 0in /  0.0mm
15:49 67.5 °F /  19.7 °C 38.8 °F /  3.8 °C 30in /  1017.2hPa Oeste 12.5mph /  20.1km/h 22mph /  35.4km/h 35.1% 0in /  0.0mm
15:54 67.5 °F /  19.7 °C 39.6 °F /  4.2 °C 30in /  1017.2hPa OSO 11.2mph /  18km/h 23mph /  37km/h 36% 0in /  0.0mm
15:59 67.5 °F /  19.7 °C 39.9 °F /  4.4 °C 30in /  1017.2hPa OSO 10.2mph /  16.4km/h 23mph /  37km/h 36.3% 0in /  0.0mm
16:04 67.5 °F /  19.7 °C 40.6 °F /  4.8 °C 30in /  1017.2hPa Oeste 10.8mph /  17.4km/h 22mph /  35.4km/h 37.4% 0in /  0.0mm
16:09 67.3 °F /  19.6 °C 40.8 °F /  4.9 °C 30in /  1017.2hPa Oeste 11.2mph /  18km/h 17.3mph /  27.8km/h 38% 0in /  0.0mm
16:14 66.9 °F /  19.4 °C 40.8 °F /  4.9 °C 30in /  1016.9hPa Oeste 9.8mph /  15.7km/h 17mph /  27.4km/h 38.5% 0in /  0.0mm
16:19 66.7 °F /  19.3 °C 41 °F /  5 °C 30in /  1016.9hPa Oeste 8.7mph /  14km/h 14mph /  22.5km/h 39% 0in /  0.0mm
16:24 66.6 °F /  19.2 °C 41.4 °F /  5.2 °C 30in /  1017.2hPa Oeste 8.1mph /  13km/h 14mph /  22.5km/h 39.7% 0in /  0.0mm
16:29 66.4 °F /  19.1 °C 41.4 °F /  5.2 °C 30in /  1017.2hPa Oeste 7.6mph /  12.2km/h 14mph /  22.5km/h 40% 0in /  0.0mm
16:34 66.2 °F /  19 °C 41.5 °F /  5.3 °C 30in /  1017.2hPa ONO 6.6mph /  10.6km/h 9.2mph /  14.8km/h 40.7% 0in /  0.0mm
16:39 66 °F /  18.9 °C 41.5 °F /  5.3 °C 30in /  1017.3hPa ONO 5.9mph /  9.5km/h 9.2mph /  14.8km/h 41% 0in /  0.0mm
16:44 65.8 °F /  18.8 °C 41.4 °F /  5.2 °C 30in /  1017.3hPa ONO 5.5mph /  8.8km/h 9.2mph /  14.8km/h 41% 0in /  0.0mm
16:49 65.5 °F /  18.6 °C 41.2 °F /  5.1 °C 30in /  1017.3hPa ONO 5.2mph /  8.4km/h 14mph /  22.5km/h 41% 0in /  0.0mm
16:54 65.5 °F /  18.6 °C 41 °F /  5 °C 30.1in /  1017.5hPa ONO 6.2mph /  10km/h 14mph /  22.5km/h 40.9% 0in /  0.0mm
16:59 65.3 °F /  18.5 °C 41 °F /  5 °C 30.1in /  1017.5hPa Oeste 6.9mph /  11.1km/h 13mph /  20.9km/h 41% 0in /  0.0mm
17:04 65.3 °F /  18.5 °C 41 °F /  5 °C 30.1in /  1017.5hPa Oeste 7.3mph /  11.8km/h 16.1mph /  25.9km/h 41% 0in /  0.0mm
17:09 65.5 °F /  18.6 °C 41.2 °F /  5.1 °C 30.1in /  1017.7hPa Oeste 7.6mph /  12.2km/h 19.7mph /  31.7km/h 41% 0in /  0.0mm
17:14 65.3 °F /  18.5 °C 41.5 °F /  5.3 °C 30.1in /  1017.7hPa Oeste 7.9mph /  12.7km/h 20mph /  32.2km/h 41.8% 0in /  0.0mm
17:19 65.1 °F /  18.4 °C 41.4 °F /  5.2 °C 30.1in /  1017.7hPa ONO 8.1mph /  13km/h 19mph /  30.6km/h 42% 0in /  0.0mm
17:24 64.9 °F /  18.3 °C 41.7 °F /  5.4 °C 30.1in /  1018.0hPa NO 7.8mph /  12.6km/h 18mph /  29km/h 43% 0in /  0.0mm
17:29 64.4 °F /  18 °C 41.5 °F /  5.3 °C 30.1in /  1018.0hPa ONO 7.6mph /  12.2km/h 16.3mph /  26.2km/h 43.2% 0in /  0.0mm
17:34 63.9 °F /  17.7 °C 41.9 °F /  5.5 °C 30.1in /  1018.0hPa ONO 8.8mph /  14.2km/h 16.3mph /  26.2km/h 44.4% 0in /  0.0mm
17:39 63.5 °F /  17.5 °C 42.3 °F /  5.7 °C 30.1in /  1018.3hPa ONO 9.7mph /  15.6km/h 17.3mph /  27.8km/h 45.8% 0in /  0.0mm
17:44 63.1 °F /  17.3 °C 42.8 °F /  6 °C 30.1in /  1018.3hPa ONO 9.7mph /  15.6km/h 28.4mph /  45.7km/h 47.4% 0in /  0.0mm
17:49 63 °F /  17.2 °C 43.3 °F /  6.3 °C 30.1in /  1018.3hPa ONO 9.7mph /  15.6km/h 30.1mph /  48.4km/h 48.7% 0in /  0.0mm
17:54 63 °F /  17.2 °C 43.3 °F /  6.3 °C 30.1in /  1018.5hPa ONO 12.8mph /  20.6km/h 31.1mph /  50.1km/h 49% 0in /  0.0mm
17:59 62.8 °F /  17.1 °C 43.3 °F /  6.3 °C 30.1in /  1018.5hPa ONO 15.2mph /  24.5km/h 31mph /  49.9km/h 49% 0in /  0.0mm
18:04 62.4 °F /  16.9 °C 43 °F /  6.1 °C 30.1in /  1018.5hPa ONO 16.3mph /  26.2km/h 32.2mph /  51.8km/h 49% 0in /  0.0mm
18:09 62.2 °F /  16.8 °C 42.8 °F /  6 °C 30.1in /  1018.8hPa ONO 17mph /  27.4km/h 32mph /  51.5km/h 49% 0in /  0.0mm
18:14 62.1 °F /  16.7 °C 42.8 °F /  6 °C 30.1in /  1018.8hPa ONO 15.7mph /  25.2km/h 26mph /  41.8km/h 49.5% 0in /  0.0mm
18:19 61.7 °F /  16.5 °C 43 °F /  6.1 °C 30.1in /  1018.8hPa ONO 14.7mph /  23.7km/h 23.7mph /  38.1km/h 50% 0in /  0.0mm
18:24 61.3 °F /  16.3 °C 42.4 °F /  5.8 °C 30.1in /  1019.4hPa ONO 13.7mph /  22.1km/h 28.6mph /  46km/h 49.8% 0in /  0.0mm
18:29 61.3 °F /  16.3 °C 41.9 °F /  5.5 °C 30.1in /  1019.4hPa ONO 13mph /  20.9km/h 29mph /  46.7km/h 49% 0in /  0.0mm
18:34 61.2 °F /  16.2 °C 42.3 °F /  5.7 °C 30.1in /  1019.4hPa ONO 13.4mph /  21.6km/h 25.3mph /  40.7km/h 49.8% 0in /  0.0mm
18:39 61 °F /  16.1 °C 42.3 °F /  5.7 °C 30.1in /  1020.0hPa ONO 13.7mph /  22.1km/h 25mph /  40.2km/h 50% 0in /  0.0mm
18:44 60.8 °F /  16 °C 41.5 °F /  5.3 °C 30.1in /  1020.0hPa ONO 11.6mph /  18.6km/h 17mph /  27.4km/h 49% 0in /  0.0mm
18:49 60.6 °F /  15.9 °C 41.4 °F /  5.2 °C 30.1in /  1020.0hPa ONO 10mph /  16.1km/h 15.2mph /  24.5km/h 49% 0in /  0.0mm
18:54 60.4 °F /  15.8 °C 41.2 °F /  5.1 °C 30.1in /  1020.3hPa ONO 8.3mph /  13.3km/h 15mph /  24.1km/h 49% 0in /  0.0mm
18:59 60.3 °F /  15.7 °C 41.4 °F /  5.2 °C 30.1in /  1020.3hPa NO 6.9mph /  11.1km/h 19mph /  30.6km/h 49.4% 0in /  0.0mm
19:04 60.1 °F /  15.6 °C 40.8 °F /  4.9 °C 30.1in /  1020.3hPa ONO 7.6mph /  12.3km/h 25.6mph /  41.2km/h 49% 0in /  0.0mm
19:09 60.1 °F /  15.6 °C 41.2 °F /  5.1 °C 30.2in /  1020.9hPa ONO 8.1mph /  13km/h 26mph /  41.8km/h 49.7% 0in /  0.0mm
19:14 59.7 °F /  15.4 °C 41 °F /  5 °C 30.2in /  1020.9hPa ONO 10.3mph /  16.5km/h 26.5mph /  42.6km/h 50% 0in /  0.0mm
19:19 59.7 °F /  15.4 °C 41 °F /  5 °C 30.2in /  1020.9hPa ONO 11.8mph /  19km/h 26mph /  41.8km/h 50% 0in /  0.0mm
19:24 59.5 °F /  15.3 °C 40.8 °F /  4.9 °C 30.2in /  1020.9hPa ONO 11.8mph /  19km/h 21mph /  33.8km/h 50% 0in /  0.0mm
19:29 59.4 °F /  15.2 °C 40.6 °F /  4.8 °C 30.1in /  1020.7hPa ONO 11.8mph /  19km/h 26.5mph /  42.6km/h 50% 0in /  0.0mm
19:34 59.4 °F /  15.2 °C 40.6 °F /  4.8 °C 30.1in /  1020.7hPa ONO 13.1mph /  21.1km/h 26.5mph /  42.6km/h 50% 0in /  0.0mm
19:39 59 °F /  15 °C 40.6 °F /  4.8 °C 30.2in /  1020.9hPa ONO 14mph /  22.5km/h 23mph /  37km/h 50.6% 0in /  0.0mm
19:44 58.6 °F /  14.8 °C 40.6 °F /  4.8 °C 30.2in /  1020.9hPa ONO 14.3mph /  23km/h 29.9mph /  48.1km/h 51% 0in /  0.0mm
19:49 58.5 °F /  14.7 °C 40.5 °F /  4.7 °C 30.2in /  1020.9hPa ONO 14.5mph /  23.3km/h 30mph /  48.3km/h 51% 0in /  0.0mm
19:54 58.3 °F /  14.6 °C 40.1 °F /  4.5 °C 30.2in /  1021.1hPa ONO 14.6mph /  23.5km/h 25.6mph /  41.2km/h 51% 0in /  0.0mm
19:59 57.9 °F /  14.4 °C 39.9 °F /  4.4 °C 30.2in /  1021.1hPa ONO 14.7mph /  23.7km/h 26mph /  41.8km/h 51% 0in /  0.0mm
20:04 57.7 °F /  14.3 °C 39.7 °F /  4.3 °C 30.2in /  1021.1hPa ONO 13.7mph /  22km/h 26.5mph /  42.6km/h 51% 0in /  0.0mm
20:09 57.7 °F /  14.3 °C 40.1 °F /  4.5 °C 30.2in /  1021.4hPa ONO 13mph /  20.9km/h 26mph /  41.8km/h 51.9% 0in /  0.0mm
20:14 57.6 °F /  14.2 °C 40.1 °F /  4.5 °C 30.2in /  1021.4hPa ONO 12mph /  19.3km/h 21.3mph /  34.3km/h 52% 0in /  0.0mm
20:19 57.4 °F /  14.1 °C 39.9 °F /  4.4 °C 30.2in /  1021.4hPa ONO 11.2mph /  18km/h 24.2mph /  38.9km/h 52% 0in /  0.0mm
20:24 57.4 °F /  14.1 °C 40.1 °F /  4.5 °C 30.2in /  1021.5hPa ONO 10.6mph /  17.1km/h 24mph /  38.6km/h 52.3% 0in /  0.0mm
20:29 57.2 °F /  14 °C 40.3 °F /  4.6 °C 30.2in /  1021.5hPa NO 10.2mph /  16.4km/h 18.4mph /  29.6km/h 53% 0in /  0.0mm
20:34 57 °F /  13.9 °C 39.9 °F /  4.4 °C 30.2in /  1021.5hPa NE 8.6mph /  13.8km/h 18mph /  29km/h 53% 0in /  0.0mm
20:39 56.8 °F /  13.8 °C 39.9 °F /  4.4 °C 30.2in /  1021.8hPa NO 7.4mph /  11.9km/h 11.5mph /  18.5km/h 53% 0in /  0.0mm
20:44 56.8 °F /  13.8 °C 39.9 °F /  4.4 °C 30.2in /  1021.8hPa NNE 5.6mph /  9km/h 12mph /  19.3km/h 53.1% 0in /  0.0mm
20:49 56.8 °F /  13.8 °C 40.5 °F /  4.7 °C 30.2in /  1021.8hPa North 4.3mph /  6.9km/h 12mph /  19.3km/h 54% 0in /  0.0mm
20:54 56.7 °F /  13.7 °C 40.3 °F /  4.6 °C 30.2in /  1022.0hPa SO 3.6mph /  5.8km/h 9mph /  14.5km/h 54% 0in /  0.0mm
20:59 56.7 °F /  13.7 °C 40.3 °F /  4.6 °C 30.2in /  1022.0hPa Este 3.1mph /  5km/h 10.2mph /  16.4km/h 54% 0in /  0.0mm
21:04 56.7 °F /  13.7 °C 40.1 °F /  4.5 °C 30.2in /  1022.0hPa ESE 4.3mph /  7km/h 13mph /  20.9km/h 54% 0in /  0.0mm
21:09 56.5 °F /  13.6 °C 39.9 °F /  4.4 °C 30.2in /  1022.2hPa ESE 5.2mph /  8.4km/h 13.8mph /  22.2km/h 54% 0in /  0.0mm
21:14 56.7 °F /  13.7 °C 40.1 °F /  4.5 °C 30.2in /  1022.2hPa ESE 5.9mph /  9.5km/h 14mph /  22.5km/h 54% 0in /  0.0mm
21:19 56.7 °F /  13.7 °C 40.3 °F /  4.6 °C 30.2in /  1022.2hPa Sur 6.4mph /  10.3km/h 12.7mph /  20.4km/h 54% 0in /  0.0mm
21:24 56.8 °F /  13.8 °C 39.9 °F /  4.4 °C 30.2in /  1022.5hPa SO 6.3mph /  10.1km/h 13mph /  20.9km/h 53% 0in /  0.0mm
21:29 56.8 °F /  13.8 °C 39.9 °F /  4.4 °C 30.2in /  1022.5hPa NO 6.2mph /  10km/h 10mph /  16.1km/h 53% 0in /  0.0mm
21:34 56.8 °F /  13.8 °C 39.9 °F /  4.4 °C 30.2in /  1022.5hPa OSO 5.1mph /  8.2km/h 13.5mph /  21.7km/h 53% 0in /  0.0mm
21:39 56.8 °F /  13.8 °C 39.9 °F /  4.4 °C 30.2in /  1022.5hPa ONO 4.3mph /  6.9km/h 20.1mph /  32.3km/h 53% 0in /  0.0mm
21:44 56.8 °F /  13.8 °C 39.6 °F /  4.2 °C 30.2in /  1022.4hPa Oeste 7.1mph /  11.5km/h 21mph /  33.8km/h 52.2% 0in /  0.0mm
21:49 56.8 °F /  13.8 °C 39.4 °F /  4.1 °C 30.2in /  1022.4hPa Oeste 9.2mph /  14.8km/h 20mph /  32.2km/h 52% 0in /  0.0mm
21:54 56.8 °F /  13.8 °C 39.4 °F /  4.1 °C 30.2in /  1022.8hPa ONO 7.9mph /  12.7km/h 13.8mph /  22.2km/h 52% 0in /  0.0mm
21:59 56.8 °F /  13.8 °C 39.4 °F /  4.1 °C 30.2in /  1022.8hPa ONO 6.9mph /  11.1km/h 14mph /  22.5km/h 52% 0in /  0.0mm
22:04 56.8 °F /  13.8 °C 39.4 °F /  4.1 °C 30.2in /  1022.8hPa Oeste 6.5mph /  10.4km/h 13mph /  20.9km/h 52% 0in /  0.0mm
22:09 56.8 °F /  13.8 °C 39.4 °F /  4.1 °C 30.2in /  1022.9hPa Oeste 6.2mph /  10km/h 13mph /  20.9km/h 52% 0in /  0.0mm
22:14 56.7 °F /  13.7 °C 39.2 °F /  4 °C 30.2in /  1022.9hPa Oeste 7mph /  11.2km/h 16.3mph /  26.2km/h 52% 0in /  0.0mm
22:19 56.7 °F /  13.7 °C 39.2 °F /  4 °C 30.2in /  1022.9hPa ONO 7.6mph /  12.2km/h 16mph /  25.7km/h 52% 0in /  0.0mm
22:24 56.7 °F /  13.7 °C 39.2 °F /  4 °C 30.2in /  1022.9hPa ONO 7.6mph /  12.2km/h 15mph /  24.1km/h 52% 0in /  0.0mm
22:29 56.5 °F /  13.6 °C 39 °F /  3.9 °C 30.2in /  1022.9hPa ONO 7.6mph /  12.2km/h 14mph /  22.5km/h 52% 0in /  0.0mm
22:34 56.7 °F /  13.7 °C 39.2 °F /  4 °C 30.2in /  1022.9hPa ONO 7.9mph /  12.7km/h 14mph /  22.5km/h 52% 0in /  0.0mm
22:39 56.5 °F /  13.6 °C 39 °F /  3.9 °C 30.2in /  1023.2hPa ONO 8.1mph /  13km/h 13mph /  20.9km/h 52% 0in /  0.0mm
22:44 56.3 °F /  13.5 °C 39 °F /  3.9 °C 30.2in /  1023.2hPa ONO 7.1mph /  11.5km/h 13mph /  20.9km/h 52.4% 0in /  0.0mm
22:49 55.9 °F /  13.3 °C 39 °F /  3.9 °C 30.2in /  1023.2hPa ONO 6.4mph /  10.3km/h 16.8mph /  27km/h 53% 0in /  0.0mm
22:54 56.1 °F /  13.4 °C 39 °F /  3.9 °C 30.2in /  1023.2hPa ONO 8mph /  12.9km/h 18.4mph /  29.6km/h 52.8% 0in /  0.0mm
22:59 56.1 °F /  13.4 °C 39 °F /  3.9 °C 30.2in /  1023.1hPa ONO 9.2mph /  14.8km/h 18.5mph /  29.8km/h 52.7% 0in /  0.0mm
23:04 56.1 °F /  13.4 °C 38.8 °F /  3.8 °C 30.2in /  1023.1hPa ONO 10.4mph /  16.7km/h 19mph /  30.6km/h 52.1% 0in /  0.0mm
23:09 55.9 °F /  13.3 °C 38.8 °F /  3.8 °C 30.2in /  1023.1hPa ONO 11.2mph /  18km/h 19.7mph /  31.7km/h 52.6% 0in /  0.0mm
23:14 56.3 °F /  13.5 °C 38.8 °F /  3.8 °C 30.2in /  1023.1hPa ONO 11.2mph /  18km/h 20mph /  32.2km/h 52% 0in /  0.0mm
23:19 56.1 °F /  13.4 °C 38.7 °F /  3.7 °C 30.2in /  1023.1hPa ONO 11.2mph /  18km/h 19mph /  30.6km/h 52% 0in /  0.0mm
23:24 56.3 °F /  13.5 °C 38.7 °F /  3.7 °C 30.2in /  1023.1hPa ONO 10.9mph /  17.6km/h 24.2mph /  38.9km/h 51.4% 0in /  0.0mm
23:29 56.5 °F /  13.6 °C 38.7 °F /  3.7 °C 30.2in /  1023.0hPa ONO 10.7mph /  17.2km/h 24mph /  38.6km/h 51% 0in /  0.0mm
23:34 56.1 °F /  13.4 °C 38.3 °F /  3.5 °C 30.2in /  1023.0hPa ONO 11.6mph /  18.7km/h 21.3mph /  34.3km/h 51% 0in /  0.0mm
23:39 56.1 °F /  13.4 °C 38.1 °F /  3.4 °C 30.2in /  1023.0hPa ONO 12.3mph /  19.8km/h 23mph /  37km/h 51% 0in /  0.0mm
23:44 55.9 °F /  13.3 °C 38.7 °F /  3.7 °C 30.2in /  1022.9hPa ONO 13.6mph /  21.9km/h 24.2mph /  38.9km/h 51.9% 0in /  0.0mm
23:49 55.8 °F /  13.2 °C 38.5 °F /  3.6 °C 30.2in /  1022.9hPa ONO 14.5mph /  23.3km/h 24.6mph /  39.6km/h 52% 0in /  0.0mm
23:54 55.8 °F /  13.2 °C 38.3 °F /  3.5 °C 30.2in /  1022.9hPa ONO 14mph /  22.6km/h 25mph /  40.2km/h 52% 0in /  0.0mm
23:59 55.6 °F /  13.1 °C 38.1 °F /  3.4 °C 30.2in /  1022.9hPa ONO 13.7mph /  22.1km/h 22.3mph /  35.9km/h 52% 0in /  0.0mm
Murcia-Puente Tocinos, España
Compliments of Weather Underground - 3 mb

La estación de MeteoMurcia.com, publica sus datos en los siguientes proyectos:

Weather Underground PWS IMURCIAP2 Meteoclimatic www.awekas.at

W3Counter
Web Analytics